WetterOnline ( https://www.wetteronline.de )

Wetter aktuell Zinnowitz

Aktuelles Wetter: Greifswalder Oie (12m)

6-stündlich | Neueste Meldungen
Ortszeit Temperatur Wetter
Do, 29.10. 7:00 10.0° C bewölkt
Do, 29.10. 1:00 10.3° C wolkig
Mi, 28.10. 19:00 11.1° C bedeckt
Mi, 28.10. 13:00 12.2° C leicht bewölkt
Mi, 28.10. 7:00 9.8° C bedeckt
Mi, 28.10. 1:00 9.7° C wolkig
Di, 27.10. 19:00 10.9° C bewölkt
Di, 27.10. 13:00 10.3° C wolkig
Ortszeit Temperatur Wetter
Do, 29.10. 9:40 9.8° C bewölkt
Do, 29.10. 9:30 9.6° C Sprühregen
Do, 29.10. 9:20 9.6° C Sprühregen
Do, 29.10. 9:10 9.6° C leichter Regen
Do, 29.10. 9:00 9.6° C Regen
Do, 29.10. 8:50 9.6° C Regen
Do, 29.10. 8:30 9.7° C leichter Regen
Do, 29.10. 8:00 10.0° C leichter Regen
Do, 29.10. 6:00 10.0° C leichter Regen
Ortszeit Relative Feuchte Sichtweite
Do, 29.10. 7:00 90% 40 km
Do, 29.10. 1:00 90% 40 km
Mi, 28.10. 19:00 85% 55 km
Mi, 28.10. 13:00 79% 60 km
Mi, 28.10. 7:00 82% 40 km
Mi, 28.10. 1:00 80% 50 km
Di, 27.10. 19:00 83% 45 km
Di, 27.10. 13:00 83% 35 km
Ortszeit Relative Feuchte Sichtweite
Do, 29.10. 9:40 90% -
Do, 29.10. 9:30 90% 35 km
Do, 29.10. 9:20 90% -
Do, 29.10. 9:10 92% -
Do, 29.10. 9:00 93% 12 km
Do, 29.10. 8:50 93% -
Do, 29.10. 8:30 93% 10 km
Do, 29.10. 8:00 93% 14 km
Do, 29.10. 6:00 89% 20 km
Ortszeit Niederschlagsmenge Niederschlagsart
Do, 29.10. 7:00 0.2 l/m2 in 12 Std. Regen
Do, 29.10. 1:00 0.2 l/m2 in 6 Std. Regen
Mi, 28.10. 19:00 0.9 l/m2 in 12 Std. Regen
Mi, 28.10. 13:00 0.1 l/m2 in 6 Std. Regen
Mi, 28.10. 7:00 0.0 l/m2 in 12 Std. -
Mi, 28.10. 1:00 0.0 l/m2 in 6 Std. -
Di, 27.10. 19:00 0.0 l/m2 in 12 Std. -
Di, 27.10. 13:00 0.0 l/m2 in 6 Std. -
Ortszeit Niederschlagsmenge Niederschlagsart
Do, 29.10. 9:40 keine Meldung -
Do, 29.10. 9:30 0.8 l/m2 in 1 Std. -
Do, 29.10. 9:20 keine Meldung -
Do, 29.10. 9:10 keine Meldung -
Do, 29.10. 9:00 1.4 l/m2 in 1 Std. Regen
Do, 29.10. 8:50 keine Meldung -
Do, 29.10. 8:30 0.7 l/m2 in 1 Std. -
Do, 29.10. 8:00 0.2 l/m2 in 1 Std. Regen
Do, 29.10. 6:00 keine Meldung -
Ortszeit Stärke Spitze Richtung
km/h Bft. km/h Grad Sektor
Do, 29.10. 7:00 25 4 43 200° S
Do, 29.10. 1:00 30 5 46 200° S
Mi, 28.10. 19:00 20 4 54 190° S
Mi, 28.10. 13:00 32 5 54 230° SW
Mi, 28.10. 7:00 43 6 58 200° S
Mi, 28.10. 1:00 43 6 50 200° S
Di, 27.10. 19:00 26 4 37 200° S
Di, 27.10. 13:00 29 5 40 200° S
Ortszeit Stärke Spitze Richtung
km/h Bft. km/h Grad Sektor
Do, 29.10. 9:40 39 6 - 230° SW
Do, 29.10. 9:30 39 6 48 240° SW
Do, 29.10. 9:20 39 6 - 240° SW
Do, 29.10. 9:10 36 5 - 240° SW
Do, 29.10. 9:00 39 6 48 240° SW
Do, 29.10. 8:50 39 6 - 240° SW
Do, 29.10. 8:30 41 6 48 230° SW
Do, 29.10. 8:00 33 5 39 200° S
Do, 29.10. 6:00 29 5 43 200° S
Ortszeit Untergrenze Bedeckung Gattung
total tief tief mittel hoch
Do, 29.10. 7:00 840 m 7/8 7/8 - - -
Do, 29.10. 1:00 1470 m 7/8 2/8 - - -
Mi, 28.10. 19:00 2700 m 8/8 8/8 - - -
Mi, 28.10. 13:00 8400 m 7/8 0/8 - - -
Mi, 28.10. 7:00 510 m 8/8 8/8 - - -
Mi, 28.10. 1:00 7200 m 7/8 0/8 - - -
Di, 27.10. 19:00 1170 m 7/8 7/8 - - -
Di, 27.10. 13:00 1500 m 8/8 1/8 - - -
Ortszeit Bedeckungsgrad in Achtel und Wolkenuntergrenze
Do, 29.10. 9:40 2(420m) 7(1500m) 8(3300m)
Do, 29.10. 9:30 1(480m) 7(1440m) 8(2100m)
Do, 29.10. 9:20 1(480m) 7(1440m) 8(2100m)
Do, 29.10. 9:10 7(1140m) 8(1380m)
Do, 29.10. 9:00 1(360m) 7(1170m) 8(1500m)
Do, 29.10. 8:50 1(360m) 7(1170m) 8(1500m)
Do, 29.10. 8:30 2(360m) 5(600m) 8(930m)
Do, 29.10. 8:00 2(600m) 7(1320m) 8(2400m)
Do, 29.10. 6:00 7(1020m) 7(1290m) 8(1500m)
Ortszeit Luftdruck NN (hPa) Tendenz (hPa in 3 Std.)
Do, 29.10. 7:00 1005 - 0,7
Do, 29.10. 1:00 1007 - 1,0
Mi, 28.10. 19:00 1008 + 0,2
Mi, 28.10. 13:00 1007 + 0,9
Mi, 28.10. 7:00 1005 - 0,1
Mi, 28.10. 1:00 1006 - 0,6
Di, 27.10. 19:00 1007 + 0,6
Di, 27.10. 13:00 1007 + 0,3
Ortszeit Luftdruck NN (hPa) Tendenz (hPa in 3 Std.)
Do, 29.10. 9:40 1006 keine Meldung
Do, 29.10. 9:30 1006 + 1,1
Do, 29.10. 9:20 1006 keine Meldung
Do, 29.10. 9:10 1006 keine Meldung
Do, 29.10. 9:00 1006 + 0,5
Do, 29.10. 8:50 1006 keine Meldung
Do, 29.10. 8:30 1005 0,0
Do, 29.10. 8:00 1005 - 0,4
Do, 29.10. 6:00 1005 - 1,1
Ortszeit Schneehöhe (cm)
Do, 29.10. 7:00 0
Do, 29.10. 1:00 0
Mi, 28.10. 19:00 0
Mi, 28.10. 13:00 0
Mi, 28.10. 7:00 0
Mi, 28.10. 1:00 0
Di, 27.10. 19:00 0
Di, 27.10. 13:00 0
Ortszeit Schneehöhe (cm)
Do, 29.10. 9:40 0
Do, 29.10. 9:30 0
Do, 29.10. 9:20 0
Do, 29.10. 9:10 0
Do, 29.10. 9:00 0
Do, 29.10. 8:50 0
Do, 29.10. 8:30 0
Do, 29.10. 8:00 0
Do, 29.10. 6:00 -
Link zu dieser Seite / Seite empfehlen

Das Wetter in ...